createdAt,value
2018-09-01T00:00:01.150Z,8.7
2018-09-01T00:05:01.099Z,7.8
2018-09-01T00:10:01.160Z,7.6
2018-09-01T00:15:01.054Z,8.2
2018-09-01T00:20:01.207Z,8.7
2018-09-01T00:25:01.090Z,8.8
2018-09-01T00:30:01.149Z,9.2
2018-09-01T00:35:01.084Z,9.3
2018-09-01T00:40:01.157Z,9.1
2018-09-01T00:45:01.094Z,9.1
2018-09-01T00:50:01.121Z,9.3
2018-09-01T00:55:01.058Z,9.6
2018-09-01T01:00:01.058Z,8.9
2018-09-01T01:05:01.110Z,8.6
2018-09-01T01:10:01.128Z,8.7
2018-09-01T01:15:01.029Z,9.2
2018-09-01T01:20:01.126Z,9.0
2018-09-01T01:25:01.033Z,9.4
2018-09-01T01:30:01.202Z,10.0
2018-09-01T01:35:01.068Z,9.8
2018-09-01T01:40:01.206Z,9.7
2018-09-01T01:45:01.041Z,9.7
2018-09-01T01:50:01.134Z,10.0
2018-09-01T01:55:01.097Z,9.9
2018-09-01T02:00:01.142Z,10.1
2018-09-01T02:05:01.047Z,9.8
2018-09-01T02:10:06.179Z,10.2
2018-09-01T02:15:01.039Z,10.3
2018-09-01T02:20:01.198Z,10.0
2018-09-01T02:25:01.074Z,9.7
2018-09-01T02:30:01.148Z,10.0
2018-09-01T02:35:01.070Z,9.8
2018-09-01T02:45:01.079Z,10.4
2018-09-01T02:50:01.148Z,10.3
2018-09-01T02:55:01.097Z,10.0
2018-09-01T03:00:01.143Z,9.7
2018-09-01T03:05:01.083Z,9.8
2018-09-01T03:10:01.147Z,9.7
2018-09-01T03:15:01.057Z,10.3
2018-09-01T03:20:01.186Z,11.0
2018-09-01T03:25:01.087Z,11.1
2018-09-01T03:30:01.141Z,10.4
2018-09-01T03:35:01.093Z,10.9
2018-09-01T03:40:01.157Z,10.4
2018-09-01T03:45:01.049Z,9.6
2018-09-01T03:55:01.140Z,10.0
2018-09-01T04:00:01.192Z,9.2
2018-09-01T04:05:01.121Z,9.1
2018-09-01T04:10:01.175Z,9.5
2018-09-01T04:15:01.094Z,9.6
2018-09-01T04:20:01.226Z,9.4
2018-09-01T04:25:01.070Z,10.3
2018-09-01T04:30:01.101Z,10.6
2018-09-01T04:35:01.106Z,10.4
2018-09-01T04:40:01.173Z,10.8
2018-09-01T04:45:01.076Z,11.3
2018-09-01T04:50:01.237Z,11.1
2018-09-01T04:55:01.116Z,11.4
2018-09-01T05:00:01.219Z,11.3
2018-09-01T05:05:01.100Z,11.6
2018-09-01T05:10:01.101Z,11.7
2018-09-01T05:15:01.079Z,11.0
2018-09-01T05:25:01.100Z,11.8
2018-09-01T05:30:01.235Z,11.6
2018-09-01T05:35:01.108Z,11.4
2018-09-01T05:40:01.279Z,11.6
2018-09-01T05:45:01.138Z,11.5
2018-09-01T05:55:06.248Z,11.6
2018-09-01T06:00:01.163Z,12.0
2018-09-01T06:05:01.101Z,12.7
2018-09-01T06:10:01.219Z,12.5
2018-09-01T06:15:01.070Z,12.0
2018-09-01T06:20:01.164Z,11.3
2018-09-01T06:25:01.155Z,10.7
2018-09-01T06:30:01.199Z,10.1
2018-09-01T06:35:01.072Z,9.8
2018-09-01T06:40:06.177Z,10.9
2018-09-01T06:45:06.116Z,11.8
2018-09-01T06:50:06.238Z,12.4
2018-09-01T06:55:06.112Z,13.3
2018-09-01T07:00:06.115Z,14.6
2018-09-01T07:05:01.142Z,14.3
2018-09-01T07:10:01.269Z,15.6
2018-09-01T07:15:01.146Z,16.0
2018-09-01T07:20:06.103Z,17.0
2018-09-01T07:25:01.134Z,17.9
2018-09-01T07:30:06.288Z,18.7
2018-09-01T07:35:01.244Z,18.4
2018-09-01T07:45:06.236Z,18.4
2018-09-01T07:50:06.169Z,18.3
2018-09-01T08:00:01.175Z,18.6
2018-09-01T08:05:01.118Z,19.4
2018-09-01T08:15:01.254Z,19.1
2018-09-01T08:25:01.153Z,18.2
2018-09-01T08:30:01.227Z,17.5
2018-09-01T08:35:01.071Z,16.6
2018-09-01T08:40:01.100Z,16.4
2018-09-01T08:45:01.108Z,15.7
2018-09-01T08:50:01.165Z,15.2
2018-09-01T08:55:01.106Z,14.4
2018-09-01T09:00:01.235Z,13.6
2018-09-01T09:05:01.072Z,13.4
2018-09-01T09:10:01.176Z,13.0
2018-09-01T09:15:01.123Z,11.9
2018-09-01T09:20:01.177Z,11.4
2018-09-01T09:25:01.130Z,10.9
2018-09-01T09:31:06.103Z,9.6
2018-09-01T09:36:01.139Z,8.5
2018-09-01T09:41:01.208Z,8.2
2018-09-01T09:46:01.143Z,8.3
2018-09-01T09:51:01.142Z,8.8
2018-09-01T10:06:01.174Z,9.0
2018-09-01T10:16:01.322Z,8.4
2018-09-01T10:21:01.244Z,7.8
2018-09-01T10:26:01.135Z,7.2
2018-09-01T10:31:01.147Z,7.1
2018-09-01T10:36:01.143Z,6.6
2018-09-01T10:41:01.147Z,6.7
2018-09-01T10:46:06.114Z,6.6
2018-09-01T10:52:01.099Z,7.2
2018-09-01T10:57:01.100Z,6.8
2018-09-01T11:02:06.102Z,6.7
2018-09-01T11:07:06.171Z,6.4
2018-09-01T11:12:01.103Z,6.5
2018-09-01T11:17:01.214Z,6.2
2018-09-01T11:22:01.142Z,6.6
2018-09-01T11:27:01.161Z,6.5
2018-09-01T11:32:01.143Z,6.4
2018-09-01T11:42:01.107Z,6.2
2018-09-01T11:48:01.117Z,5.8
2018-09-01T11:53:01.174Z,6.0
2018-09-01T11:58:01.124Z,6.1
2018-09-01T12:03:01.136Z,6.5
2018-09-01T12:13:01.234Z,7.0
2018-09-01T12:18:06.173Z,7.3
2018-09-01T12:28:06.126Z,6.9
2018-09-01T12:33:06.113Z,7.2
2018-09-01T12:43:01.213Z,6.5
2018-09-01T12:48:01.283Z,6.1
2018-09-01T12:58:01.170Z,5.9
2018-09-01T13:03:01.108Z,5.6
2018-09-01T13:13:01.167Z,5.7
2018-09-01T13:18:01.167Z,5.6
2018-09-01T13:28:01.116Z,5.9
2018-09-01T13:33:01.102Z,6.1
2018-09-01T13:38:01.236Z,6.0
2018-09-01T13:43:01.105Z,5.8
2018-09-01T13:53:01.109Z,5.4
2018-09-01T13:58:01.174Z,5.3
2018-09-01T14:03:01.076Z,5.7
2018-09-01T14:08:01.110Z,6.0
2018-09-01T14:14:01.096Z,6.2
2018-09-01T14:19:01.236Z,6.1
2018-09-01T14:24:01.102Z,5.8
2018-09-01T14:29:01.097Z,5.4
2018-09-01T14:34:01.106Z,5.2
2018-09-01T14:39:01.170Z,4.8
2018-09-01T14:44:01.105Z,4.5
2018-09-01T14:49:01.105Z,4.8
2018-09-01T14:54:01.110Z,5.0
2018-09-01T14:59:01.239Z,4.9
2018-09-01T15:04:01.081Z,4.8
2018-09-01T15:09:01.182Z,4.9
2018-09-01T15:14:01.092Z,4.8
2018-09-01T15:19:01.179Z,4.6
2018-09-01T15:24:01.095Z,4.4
2018-09-01T15:29:01.224Z,4.5
2018-09-01T15:39:01.097Z,4.8
2018-09-01T15:49:01.168Z,5.2
2018-09-01T15:59:01.167Z,5.5
2018-09-01T16:09:01.240Z,5.6
2018-09-01T16:14:01.079Z,5.4
2018-09-01T16:24:01.215Z,5.5
2018-09-01T16:30:01.164Z,5.3
2018-09-01T16:35:01.066Z,5.2
2018-09-01T16:40:01.100Z,5.1
2018-09-01T16:45:01.114Z,5.6
2018-09-01T16:50:01.115Z,5.3
2018-09-01T16:55:01.070Z,5.1
2018-09-01T17:00:01.170Z,5.1
2018-09-01T17:05:01.142Z,5.2
2018-09-01T17:10:01.171Z,5.0
2018-09-01T17:15:01.100Z,4.9
2018-09-01T17:20:01.187Z,5.4
2018-09-01T17:25:01.065Z,5.6
2018-09-01T17:30:01.096Z,5.9
2018-09-01T17:35:01.097Z,5.8
2018-09-01T17:40:01.104Z,6.3
2018-09-01T17:45:01.107Z,6.3
2018-09-01T17:50:01.098Z,6.1
2018-09-01T17:55:01.105Z,5.9
2018-09-01T18:00:01.108Z,5.7
2018-09-01T18:05:01.110Z,5.6
2018-09-01T18:10:01.106Z,5.3
2018-09-01T18:15:01.076Z,5.3
2018-09-01T18:20:01.103Z,5.1
2018-09-01T18:30:01.107Z,5.2
2018-09-01T18:35:01.106Z,5.5
2018-09-01T18:40:01.099Z,5.7
2018-09-01T18:45:01.065Z,6.1
2018-09-01T18:50:01.113Z,6.2
2018-09-01T18:55:01.070Z,6.4
2018-09-01T19:00:01.098Z,6.3
2018-09-01T19:05:01.069Z,6.7
2018-09-01T19:10:01.103Z,7.1
2018-09-01T19:15:01.109Z,7.2
2018-09-01T19:20:01.099Z,7.5
2018-09-01T19:25:01.106Z,8.3
2018-09-01T19:30:01.112Z,8.0
2018-09-01T19:35:01.108Z,8.3
2018-09-01T19:40:01.135Z,8.4
2018-09-01T19:45:01.089Z,8.5
2018-09-01T19:50:01.090Z,8.6
2018-09-01T19:55:01.095Z,9.0
2018-09-01T20:00:01.160Z,8.5
2018-09-01T20:05:01.244Z,10.1
2018-09-01T20:10:01.171Z,11.1
2018-09-01T20:15:06.104Z,12.9
2018-09-01T20:20:01.198Z,14.4
2018-09-01T20:25:01.166Z,15.8
2018-09-01T20:30:01.219Z,15.5
2018-09-01T20:35:01.141Z,14.3
2018-09-01T20:40:01.159Z,13.1
2018-09-01T20:45:06.114Z,11.6
2018-09-01T20:50:06.181Z,11.0
2018-09-01T20:55:01.145Z,9.9
2018-09-01T21:00:01.223Z,11.3
2018-09-01T21:10:06.106Z,12.6
2018-09-01T21:15:01.097Z,12.4
2018-09-01T21:20:01.172Z,12.5
2018-09-01T21:25:01.132Z,11.8
2018-09-01T21:30:01.110Z,11.4
2018-09-01T21:35:01.133Z,10.9
2018-09-01T21:40:01.107Z,10.8
2018-09-01T21:45:01.069Z,11.1
2018-09-01T21:50:01.203Z,11.5
2018-09-01T21:55:01.081Z,11.9
2018-09-01T22:00:01.112Z,12.1
2018-09-01T22:06:01.067Z,11.7
2018-09-01T22:16:01.096Z,11.4
2018-09-01T22:26:01.096Z,10.4
2018-09-01T22:31:01.166Z,10.6
2018-09-01T22:36:01.071Z,10.9
2018-09-01T22:41:01.095Z,10.7
2018-09-01T22:46:01.105Z,11.1
2018-09-01T22:51:01.236Z,11.6
2018-09-01T22:56:06.110Z,11.9
2018-09-01T23:01:01.115Z,11.8
2018-09-01T23:06:01.146Z,12.3
2018-09-01T23:16:01.110Z,12.8
2018-09-01T23:21:01.227Z,12.4
2018-09-01T23:26:01.124Z,12.9
2018-09-01T23:36:01.095Z,12.5
2018-09-01T23:41:01.165Z,13.0
2018-09-01T23:46:01.070Z,13.6
2018-09-01T23:51:01.100Z,13.0
